Time;durP1;ratioP1;P1;durP2;ratioP2;P2;SDS_P1;SDS_P2;PMS_P1;PMS_P2;Temp;Humidity;BMP_temperature;BMP_pressure;BME280_temperature;BME280_humidity;BME280_pressure;Samples;Min_cycle;Max_cycle;Signal;HPM_P1;HPM_P2
2023/07/18 00:00:25;;;;;;;;;;;32.60;66.20;;;;;;5115365;28;20002;-83
2023/07/18 00:02:51;;;;;;;;;;;32.50;66.30;;;;;;5114783;28;19915;-83
2023/07/18 00:05:17;;;;;;;;;;;32.50;66.40;;;;;;5114896;28;19930;-82
2023/07/18 00:07:44;;;;;;;;;;;32.50;66.30;;;;;;5114623;28;19954;-83
2023/07/18 00:10:10;;;;;;;;;;;32.50;66.70;;;;;;5096313;28;19904;-82
2023/07/18 00:12:37;;;;;;;;;;;32.50;66.30;;;;;;5114383;28;19948;-82
2023/07/18 00:15:07;;;;;;;;;;;32.50;65.80;;;;;;5114598;28;19994;-82
2023/07/18 00:17:33;;;;;;;;;;;32.60;65.50;;;;;;5115058;28;19904;-82
2023/07/18 00:20:04;;;;;;;;;;;32.60;65.60;;;;;;5114726;28;20375;-82
2023/07/18 00:22:30;;;;;;;;;;;32.50;66.30;;;;;;5114687;28;19904;-83
2023/07/18 00:24:56;;;;;;;;;;;32.50;65.30;;;;;;5114982;28;19956;-82
2023/07/18 00:27:21;;;;;;;;;;;32.50;66.00;;;;;;5114216;28;20383;-82
2023/07/18 00:29:47;;;;;;;;;;;32.40;65.80;;;;;;5114323;28;19903;-83
2023/07/18 00:32:13;;;;;;;;;;;32.40;65.80;;;;;;5114155;28;20054;-83
2023/07/18 00:34:40;;;;;;;;;;;32.50;65.80;;;;;;5114234;28;20316;-83
2023/07/18 00:37:06;;;;;;;;;;;32.40;65.80;;;;;;5114159;28;19903;-82
2023/07/18 00:39:32;;;;;;;;;;;32.60;65.00;;;;;;5114592;28;19918;-82
2023/07/18 00:42:00;;;;;;;;;;;32.60;65.10;;;;;;5113910;28;19964;-82
2023/07/18 00:44:26;;;;;;;;;;;32.50;65.40;;;;;;5114387;28;19999;-83
2023/07/18 00:46:52;;;;;;;;;;;32.60;64.70;;;;;;5114233;28;20427;-82
2023/07/18 00:49:18;;;;;;;;;;;32.60;64.60;;;;;;5113898;28;20355;-82
2023/07/18 00:51:44;;;;;;;;;;;32.60;64.10;;;;;;5114182;28;19908;-82
2023/07/18 00:54:10;;;;;;;;;;;32.60;64.20;;;;;;5113944;28;19904;-83
2023/07/18 00:56:36;;;;;;;;;;;32.60;64.10;;;;;;5113690;28;19962;-81
2023/07/18 00:59:02;;;;;;;;;;;32.60;65.50;;;;;;5095532;28;19911;-82
2023/07/18 01:01:28;;;;;;;;;;;32.50;65.40;;;;;;5114285;28;19970;-82
2023/07/18 01:03:54;;;;;;;;;;;32.50;65.00;;;;;;5113619;28;19927;-83
2023/07/18 01:06:21;;;;;;;;;;;32.50;65.30;;;;;;5114268;28;19938;-82
2023/07/18 01:08:47;;;;;;;;;;;32.40;65.50;;;;;;5113681;28;19910;-82
2023/07/18 01:11:13;;;;;;;;;;;32.60;65.10;;;;;;5095148;28;19908;-82
2023/07/18 01:13:39;;;;;;;;;;;32.50;65.40;;;;;;5113613;28;19903;-82
2023/07/18 01:16:04;;;;;;;;;;;32.40;66.40;;;;;;5095347;28;20396;-82
2023/07/18 01:18:30;;;;;;;;;;;32.40;66.20;;;;;;5095310;28;19908;-82
2023/07/18 01:20:57;;;;;;;;;;;32.40;66.00;;;;;;5113584;28;19910;-83
2023/07/18 01:23:24;;;;;;;;;;;32.50;66.30;;;;;;5113804;28;19903;-83
2023/07/18 01:25:49;;;;;;;;;;;32.50;66.10;;;;;;5113528;28;19946;-82
2023/07/18 01:28:15;;;;;;;;;;;32.50;66.30;;;;;;5113385;28;19935;-82
2023/07/18 01:30:41;;;;;;;;;;;32.40;66.90;;;;;;5113432;28;19969;-82
2023/07/18 01:33:07;;;;;;;;;;;32.30;67.30;;;;;;5113468;28;19908;-83
2023/07/18 01:35:33;;;;;;;;;;;32.30;67.00;;;;;;5113325;28;19949;-83
2023/07/18 01:37:59;;;;;;;;;;;32.30;67.00;;;;;;5113237;28;19908;-82
2023/07/18 01:40:25;;;;;;;;;;;32.30;67.30;;;;;;5113205;28;19955;-82
2023/07/18 01:42:55;;;;;;;;;;;32.30;67.60;;;;;;5113122;28;19972;-82
2023/07/18 01:45:21;;;;;;;;;;;32.30;67.30;;;;;;5113202;28;19904;-83
2023/07/18 01:47:48;;;;;;;;;;;32.40;67.10;;;;;;5113248;28;20352;-82
2023/07/18 01:50:14;;;;;;;;;;;32.40;66.90;;;;;;5116237;28;19935;-83
2023/07/18 01:52:40;;;;;;;;;;;32.40;67.10;;;;;;5117384;28;19911;-82
2023/07/18 01:55:06;;;;;;;;;;;32.40;67.60;;;;;;5117891;28;19904;-82
2023/07/18 01:57:42;;;;;;;;;;;32.30;67.10;;;;;;5117132;28;19904;-83
2023/07/18 02:00:12;;;;;;;;;;;32.40;67.40;;;;;;5117496;28;19912;-82
2023/07/18 02:02:38;;;;;;;;;;;32.40;67.40;;;;;;5116927;28;19934;-82
2023/07/18 02:05:04;;;;;;;;;;;32.30;67.70;;;;;;5117801;28;19919;-82
2023/07/18 02:07:30;;;;;;;;;;;32.30;67.50;;;;;;5117108;28;20405;-83
2023/07/18 02:09:57;;;;;;;;;;;32.30;67.90;;;;;;5117601;28;19998;-82
2023/07/18 02:12:23;;;;;;;;;;;32.30;67.90;;;;;;5116868;28;20327;-82
2023/07/18 02:14:49;;;;;;;;;;;32.20;67.80;;;;;;5117265;28;20336;-82
2023/07/18 02:17:14;;;;;;;;;;;32.20;68.20;;;;;;5117178;28;19939;-82
2023/07/18 02:19:40;;;;;;;;;;;32.10;68.40;;;;;;5117070;28;19918;-82
2023/07/18 02:22:06;;;;;;;;;;;32.20;68.50;;;;;;5116763;28;19986;-82
2023/07/18 02:24:32;;;;;;;;;;;32.20;68.80;;;;;;5117324;28;19957;-82
2023/07/18 02:26:58;;;;;;;;;;;32.10;68.80;;;;;;5116632;28;19979;-82
2023/07/18 02:29:24;;;;;;;;;;;32.20;68.90;;;;;;5116649;28;19908;-80
2023/07/18 02:31:50;;;;;;;;;;;32.10;69.30;;;;;;5116564;28;19904;-82
2023/07/18 02:34:16;;;;;;;;;;;32.10;69.70;;;;;;5116671;28;19911;-82
2023/07/18 02:36:42;;;;;;;;;;;32.10;69.30;;;;;;5117058;28;19911;-83
2023/07/18 02:39:10;;;;;;;;;;;32.10;69.70;;;;;;5116408;28;19912;-82
2023/07/18 02:41:36;;;;;;;;;;;32.20;69.70;;;;;;5116298;28;20011;-82
2023/07/18 02:44:02;;;;;;;;;;;32.20;69.90;;;;;;5098098;28;19910;-83
2023/07/18 02:46:28;;;;;;;;;;;32.20;69.80;;;;;;5116663;28;20362;-82
2023/07/18 02:48:54;;;;;;;;;;;32.10;70.20;;;;;;5098038;28;19908;-82
2023/07/18 02:51:20;;;;;;;;;;;32.20;70.20;;;;;;5116213;28;20002;-82
2023/07/18 02:53:46;;;;;;;;;;;32.20;70.00;;;;;;5097851;28;19904;-82
2023/07/18 02:56:12;;;;;;;;;;;32.40;69.80;;;;;;5116125;28;19998;-82
2023/07/18 02:58:38;;;;;;;;;;;32.20;70.20;;;;;;5115962;28;20115;-81
2023/07/18 03:01:04;;;;;;;;;;;32.20;70.30;;;;;;5115082;28;20014;-82
2023/07/18 03:03:30;;;;;;;;;;;32.20;70.40;;;;;;5094056;28;19923;-83
2023/07/18 03:05:56;;;;;;;;;;;32.10;70.50;;;;;;5096153;28;19950;-82
2023/07/18 03:08:22;;;;;;;;;;;32.00;70.80;;;;;;5095528;28;19908;-83
2023/07/18 03:10:48;;;;;;;;;;;32.10;70.60;;;;;;5094169;28;20276;-83
2023/07/18 03:13:14;;;;;;;;;;;32.10;70.80;;;;;;5095152;28;20450;-83
2023/07/18 03:15:41;;;;;;;;;;;32.00;70.60;;;;;;5095389;28;19904;-83
2023/07/18 03:18:07;;;;;;;;;;;32.00;70.80;;;;;;5095281;28;20433;-82
2023/07/18 03:20:33;;;;;;;;;;;32.00;70.60;;;;;;5095255;28;19908;-82
2023/07/18 03:22:59;;;;;;;;;;;32.10;70.80;;;;;;5095210;28;19908;-83
2023/07/18 03:25:25;;;;;;;;;;;32.10;70.80;;;;;;5095160;28;19914;-81
2023/07/18 03:27:51;;;;;;;;;;;32.00;70.60;;;;;;5095421;28;19904;-82
2023/07/18 03:30:17;;;;;;;;;;;32.00;70.60;;;;;;5095506;28;20308;-82
2023/07/18 03:32:43;;;;;;;;;;;32.10;70.50;;;;;;5095081;28;19904;-82
2023/07/18 03:35:10;;;;;;;;;;;32.20;70.30;;;;;;5095091;28;19908;-82
2023/07/18 03:37:36;;;;;;;;;;;32.20;70.20;;;;;;5095584;28;19904;-83
2023/07/18 03:40:04;;;;;;;;;;;32.20;70.40;;;;;;5094957;28;20244;-82
2023/07/18 03:42:30;;;;;;;;;;;32.20;70.10;;;;;;5094920;28;19911;-82
2023/07/18 03:44:56;;;;;;;;;;;32.20;70.00;;;;;;5095417;28;19904;-81
2023/07/18 03:47:22;;;;;;;;;;;32.30;69.70;;;;;;5094858;28;20272;-82
2023/07/18 03:49:47;;;;;;;;;;;32.40;69.50;;;;;;5094984;28;19911;-82
2023/07/18 03:52:13;;;;;;;;;;;32.50;69.40;;;;;;5094642;28;19911;-82
2023/07/18 03:54:39;;;;;;;;;;;32.40;69.80;;;;;;5095166;28;19949;-82
2023/07/18 03:57:05;;;;;;;;;;;32.30;70.00;;;;;;5094595;28;19911;-82
2023/07/18 03:59:31;;;;;;;;;;;32.30;69.60;;;;;;5094388;28;20268;-82
2023/07/18 04:01:57;;;;;;;;;;;32.30;69.30;;;;;;5093371;28;19927;-82
2023/07/18 04:04:22;;;;;;;;;;;32.30;69.20;;;;;;5113141;28;19915;-82
2023/07/18 04:06:48;;;;;;;;;;;32.30;70.00;;;;;;5115420;28;19953;-81
2023/07/18 04:09:14;;;;;;;;;;;32.20;69.30;;;;;;5114710;28;19907;-82
2023/07/18 04:11:41;;;;;;;;;;;32.20;69.20;;;;;;5114707;28;19904;-82
2023/07/18 04:14:07;;;;;;;;;;;32.20;69.10;;;;;;5114876;28;19927;-82
2023/07/18 04:16:33;;;;;;;;;;;32.20;68.90;;;;;;5114797;28;20340;-82
2023/07/18 04:18:59;;;;;;;;;;;32.30;68.70;;;;;;5115071;28;19919;-82
2023/07/18 04:21:25;;;;;;;;;;;32.30;68.60;;;;;;5114426;28;19915;-82
2023/07/18 04:23:51;;;;;;;;;;;32.30;68.20;;;;;;5114510;28;19904;-82
2023/07/18 04:26:17;;;;;;;;;;;32.40;68.30;;;;;;5096167;28;19903;-82
2023/07/18 04:28:43;;;;;;;;;;;32.40;68.20;;;;;;5114326;28;19910;-82
2023/07/18 04:31:09;;;;;;;;;;;32.50;67.80;;;;;;5096076;28;20271;-82
2023/07/18 04:33:37;;;;;;;;;;;32.60;67.90;;;;;;5114636;28;20295;-82
2023/07/18 04:36:04;;;;;;;;;;;32.60;67.90;;;;;;5114357;28;19927;-82
2023/07/18 04:38:30;;;;;;;;;;;32.60;67.70;;;;;;5114264;28;19922;-82
2023/07/18 04:40:56;;;;;;;;;;;32.70;67.60;;;;;;5114256;28;20309;-82
2023/07/18 04:43:22;;;;;;;;;;;32.70;67.60;;;;;;5113999;28;19990;-82
2023/07/18 04:45:48;;;;;;;;;;;32.80;67.20;;;;;;5114070;28;19907;-82
2023/07/18 04:48:14;;;;;;;;;;;32.80;68.20;;;;;;5113918;28;19907;-83
2023/07/18 04:50:41;;;;;;;;;;;32.90;67.10;;;;;;5113897;28;19903;-83
2023/07/18 04:53:07;;;;;;;;;;;32.90;66.90;;;;;;5113935;28;20361;-83
2023/07/18 04:55:34;;;;;;;;;;;33.00;67.10;;;;;;5114053;28;19904;-83
2023/07/18 04:58:01;;;;;;;;;;;33.10;67.00;;;;;;5113529;28;19988;-83
2023/07/18 05:00:29;;;;;;;;;;;33.20;67.10;;;;;;5113609;28;19972;-82
2023/07/18 05:02:54;;;;;;;;;;;33.30;66.50;;;;;;5095038;28;20411;-82
2023/07/18 05:05:20;;;;;;;;;;;33.50;66.00;;;;;;5095180;28;19951;-84
2023/07/18 05:07:47;;;;;;;;;;;33.50;66.30;;;;;;5114174;28;19949;-84
2023/07/18 05:10:13;;;;;;;;;;;33.50;66.00;;;;;;5113719;28;19956;-83
2023/07/18 05:12:39;;;;;;;;;;;33.90;65.60;;;;;;5113343;28;20002;-82
2023/07/18 05:15:05;;;;;;;;;;;34.60;64.70;;;;;;5113454;28;19911;-83
2023/07/18 05:17:31;;;;;;;;;;;35.40;64.10;;;;;;5113954;28;19904;-83
2023/07/18 05:19:57;;;;;;;;;;;35.90;63.30;;;;;;5113407;28;20104;-83
2023/07/18 05:22:23;;;;;;;;;;;36.70;62.10;;;;;;5113351;28;19908;-83
2023/07/18 05:24:49;;;;;;;;;;;37.10;61.20;;;;;;5112556;28;19904;-83
2023/07/18 05:27:14;;;;;;;;;;;37.50;60.80;;;;;;5113596;28;20375;-82
2023/07/18 05:29:40;;;;;;;;;;;37.70;60.10;;;;;;5113647;28;19911;-83
2023/07/18 05:32:06;;;;;;;;;;;38.20;59.70;;;;;;5095049;28;20060;-83
2023/07/18 05:34:33;;;;;;;;;;;38.00;59.40;;;;;;5095047;28;19952;-83
2023/07/18 05:37:00;;;;;;;;;;;37.70;59.30;;;;;;5113577;28;19903;-82
2023/07/18 05:39:29;;;;;;;;;;;37.60;59.60;;;;;;5113329;28;19971;-82
2023/07/18 05:41:55;;;;;;;;;;;38.00;58.90;;;;;;5113086;28;20283;-82
2023/07/18 05:44:20;;;;;;;;;;;37.80;58.70;;;;;;5113232;28;20002;-83
2023/07/18 05:46:46;;;;;;;;;;;38.10;58.70;;;;;;5113062;28;20003;-83
2023/07/18 05:49:12;;;;;;;;;;;37.60;58.60;;;;;;5113038;28;20310;-82
2023/07/18 05:51:38;;;;;;;;;;;37.70;58.60;;;;;;5113013;28;19954;-82
2023/07/18 05:54:04;;;;;;;;;;;38.10;58.40;;;;;;5113100;28;20391;-82
2023/07/18 05:56:31;;;;;;;;;;;38.30;58.10;;;;;;5113065;28;19929;-82
2023/07/18 05:58:57;;;;;;;;;;;38.20;57.60;;;;;;5113103;28;19907;-83
2023/07/18 06:01:23;;;;;;;;;;;38.40;57.50;;;;;;5113108;28;20276;-83
2023/07/18 06:03:49;;;;;;;;;;;38.50;57.40;;;;;;5112651;28;19920;-83
2023/07/18 06:06:15;;;;;;;;;;;39.20;56.90;;;;;;5113214;28;19907;-80
2023/07/18 06:08:41;;;;;;;;;;;40.30;56.00;;;;;;5113281;28;20371;-83
2023/07/18 06:11:07;;;;;;;;;;;40.40;55.40;;;;;;5112999;28;19996;-83
2023/07/18 06:13:33;;;;;;;;;;;40.70;54.90;;;;;;5112762;28;19954;-83
2023/07/18 06:15:59;;;;;;;;;;;40.90;54.70;;;;;;5113628;28;19903;-83
2023/07/18 06:18:24;;;;;;;;;;;40.60;54.50;;;;;;5113034;28;19961;-84
2023/07/18 06:20:50;;;;;;;;;;;40.90;54.60;;;;;;5094554;28;19995;-82
2023/07/18 06:23:16;;;;;;;;;;;41.80;53.30;;;;;;5112672;28;20367;-83
2023/07/18 06:25:42;;;;;;;;;;;41.80;53.30;;;;;;5113083;28;20370;-83
2023/07/18 06:28:08;;;;;;;;;;;42.00;53.10;;;;;;5112683;28;19908;-83
2023/07/18 06:30:34;;;;;;;;;;;42.40;53.10;;;;;;5113369;28;19998;-82
2023/07/18 06:33:00;;;;;;;;;;;42.80;51.80;;;;;;5112685;28;19923;-82
2023/07/18 06:35:25;;;;;;;;;;;42.70;51.80;;;;;;5113760;28;19904;-82
2023/07/18 06:37:51;;;;;;;;;;;43.20;50.80;;;;;;5098168;28;19957;-83
2023/07/18 06:40:17;;;;;;;;;;;43.00;50.90;;;;;;5116824;28;19911;-83
2023/07/18 06:42:43;;;;;;;;;;;43.40;50.80;;;;;;5116246;28;20271;-82
2023/07/18 06:45:09;;;;;;;;;;;44.40;50.00;;;;;;5116252;28;19903;-84
2023/07/18 06:47:35;;;;;;;;;;;45.40;49.40;;;;;;5116286;28;19908;-82
2023/07/18 06:50:01;;;;;;;;;;;45.70;47.90;;;;;;5116173;28;19903;-82
2023/07/18 06:52:27;;;;;;;;;;;45.60;48.10;;;;;;5097868;28;19911;-83
2023/07/18 06:54:56;;;;;;;;;;;46.10;46.60;;;;;;5116045;28;19907;-82
2023/07/18 06:57:21;;;;;;;;;;;46.30;46.30;;;;;;5116202;28;19904;-83
2023/07/18 06:59:47;;;;;;;;;;;46.40;44.90;;;;;;5116023;28;19918;-83
2023/07/18 07:02:13;;;;;;;;;;;43.70;46.90;;;;;;5116460;28;19903;-80
2023/07/18 07:04:39;;;;;;;;;;;41.60;51.10;;;;;;5116469;28;19982;-81
2023/07/18 07:07:05;;;;;;;;;;;41.50;52.30;;;;;;5115845;28;19924;-81
2023/07/18 07:09:33;;;;;;;;;;;41.00;56.60;;;;;;5097430;28;20359;-81
2023/07/18 07:11:59;;;;;;;;;;;41.30;56.60;;;;;;5115678;28;20352;-81
2023/07/18 07:14:25;;;;;;;;;;;40.60;57.90;;;;;;5115813;28;19935;-81
2023/07/18 07:16:51;;;;;;;;;;;40.20;52.10;;;;;;5115953;28;19911;-81
2023/07/18 07:19:17;;;;;;;;;;;39.70;54.20;;;;;;5116094;28;20359;-81
2023/07/18 07:21:43;;;;;;;;;;;39.90;55.20;;;;;;5115857;28;19908;-81
2023/07/18 07:24:08;;;;;;;;;;;40.20;57.10;;;;;;5115588;28;19910;-81
2023/07/18 07:26:37;;;;;;;;;;;39.50;51.00;;;;;;5097282;28;19908;-80
2023/07/18 07:29:04;;;;;;;;;;;38.80;50.90;;;;;;5097049;28;20320;-81
2023/07/18 07:31:30;;;;;;;;;;;39.30;50.20;;;;;;5115651;28;19910;-82
2023/07/18 07:33:56;;;;;;;;;;;39.50;50.00;;;;;;5115936;28;19974;-81
2023/07/18 07:36:22;;;;;;;;;;;39.40;49.50;;;;;;5115686;28;20257;-82
2023/07/18 07:38:49;;;;;;;;;;;39.50;49.20;;;;;;5115993;28;20344;-82
2023/07/18 07:41:14;;;;;;;;;;;40.00;49.80;;;;;;5115148;28;19911;-81
2023/07/18 07:43:40;;;;;;;;;;;40.60;48.40;;;;;;5114913;28;19904;-82
2023/07/18 07:46:06;;;;;;;;;;;40.80;48.50;;;;;;5114967;28;19908;-82
2023/07/18 07:48:32;;;;;;;;;;;41.20;48.00;;;;;;5115104;28;19926;-82
2023/07/18 07:50:58;;;;;;;;;;;41.10;47.50;;;;;;5115090;28;19933;-82
2023/07/18 07:53:24;;;;;;;;;;;41.00;47.40;;;;;;5115357;28;19907;-82
2023/07/18 07:55:50;;;;;;;;;;;41.20;48.10;;;;;;5115128;28;19903;-82
2023/07/18 07:58:16;;;;;;;;;;;41.00;47.40;;;;;;5114594;28;20359;-83
2023/07/18 08:00:41;;;;;;;;;;;41.40;47.60;;;;;;5115402;28;19912;-83
2023/07/18 08:03:08;;;;;;;;;;;41.20;46.90;;;;;;5114962;28;20002;-83
2023/07/18 08:05:34;;;;;;;;;;;41.20;47.30;;;;;;5114651;28;19996;-82
2023/07/18 08:08:00;;;;;;;;;;;41.20;47.00;;;;;;5114718;28;19924;-82
2023/07/18 08:10:26;;;;;;;;;;;41.50;46.90;;;;;;5114516;28;19918;-82
2023/07/18 08:12:52;;;;;;;;;;;41.50;45.50;;;;;;5114574;28;19904;-83
2023/07/18 08:15:18;;;;;;;;;;;41.50;46.80;;;;;;5115111;28;19912;-82
2023/07/18 08:17:45;;;;;;;;;;;41.70;45.90;;;;;;5114535;28;19930;-82
2023/07/18 08:20:12;;;;;;;;;;;41.80;45.40;;;;;;5114908;28;19912;-81
2023/07/18 08:22:39;;;;;;;;;;;40.90;45.40;;;;;;5096228;28;20344;-82
2023/07/18 08:25:05;;;;;;;;;;;40.60;46.00;;;;;;5096085;28;19903;-81
2023/07/18 08:27:30;;;;;;;;;;;40.70;45.80;;;;;;5114615;28;20377;-83
2023/07/18 08:29:56;;;;;;;;;;;40.70;45.90;;;;;;5096124;28;19904;-83
2023/07/18 08:32:22;;;;;;;;;;;41.10;46.00;;;;;;5095770;28;20002;-82
2023/07/18 08:34:48;;;;;;;;;;;41.40;46.10;;;;;;5114552;28;19904;-83
2023/07/18 08:37:14;;;;;;;;;;;41.60;45.80;;;;;;5114101;28;19914;-83
2023/07/18 08:39:40;;;;;;;;;;;40.80;45.70;;;;;;5114084;28;19912;-84
2023/07/18 08:42:09;;;;;;;;;;;41.20;45.70;;;;;;5114410;28;20236;-81
2023/07/18 08:44:35;;;;;;;;;;;41.40;45.50;;;;;;5095837;28;19904;-82
2023/07/18 08:47:03;;;;;;;;;;;41.00;45.70;;;;;;5114201;28;19953;-81
2023/07/18 08:49:30;;;;;;;;;;;41.30;45.50;;;;;;5114011;28;20359;-81
2023/07/18 08:51:56;;;;;;;;;;;41.60;45.00;;;;;;5095636;28;19907;-81
2023/07/18 08:54:21;;;;;;;;;;;41.40;45.20;;;;;;5113906;28;19910;-83
2023/07/18 08:56:47;;;;;;;;;;;41.50;45.00;;;;;;5114434;28;19903;-73
2023/07/18 08:59:13;;;;;;;;;;;41.30;45.00;;;;;;5112839;28;20375;-74
2023/07/18 09:01:49;;;;;;;;;;;41.40;45.30;;;;;;5113827;28;20367;-74
2023/07/18 09:04:15;;;;;;;;;;;41.40;44.90;;;;;;5113386;28;19922;-74
2023/07/18 09:07:02;;;;;;;;;;;41.60;44.30;;;;;;5114194;28;20003;-72
2023/07/18 09:09:28;;;;;;;;;;;41.70;44.80;;;;;;5113697;28;20331;-74
2023/07/18 09:11:58;;;;;;;;;;;41.60;44.70;;;;;;5113856;28;19942;-73
2023/07/18 09:14:28;;;;;;;;;;;41.50;43.90;;;;;;5113552;28;19947;-72
2023/07/18 09:16:55;;;;;;;;;;;41.50;44.20;;;;;;5114138;28;20264;-73
2023/07/18 09:19:37;;;;;;;;;;;41.60;44.00;;;;;;5113429;28;19908;-74
2023/07/18 09:22:04;;;;;;;;;;;41.60;44.30;;;;;;5095124;28;20352;-73
2023/07/18 09:24:31;;;;;;;;;;;41.80;43.70;;;;;;5113401;28;20257;-72
2023/07/18 09:26:57;;;;;;;;;;;42.10;43.20;;;;;;5094832;28;19955;-73
2023/07/18 09:29:24;;;;;;;;;;;42.10;43.10;;;;;;5113791;28;19939;-72
2023/07/18 09:31:50;;;;;;;;;;;41.90;43.80;;;;;;5113600;28;19953;-73
2023/07/18 09:34:18;;;;;;;;;;;41.90;43.60;;;;;;5112986;28;19904;-74
2023/07/18 09:36:55;;;;;;;;;;;42.40;43.70;;;;;;5094990;28;19904;-74
2023/07/18 09:39:22;;;;;;;;;;;42.40;42.90;;;;;;5113610;28;20022;-74
2023/07/18 09:41:48;;;;;;;;;;;42.30;43.00;;;;;;5094881;28;20306;-75
2023/07/18 09:44:14;;;;;;;;;;;42.60;44.00;;;;;;5094624;28;19908;-73
2023/07/18 09:46:40;;;;;;;;;;;42.90;43.60;;;;;;5113219;28;20267;-74
2023/07/18 09:49:07;;;;;;;;;;;42.40;44.80;;;;;;5094742;28;19904;-74
2023/07/18 09:51:33;;;;;;;;;;;42.40;43.30;;;;;;5094511;28;19903;-73
2023/07/18 09:53:59;;;;;;;;;;;42.30;43.00;;;;;;5112952;28;19903;-73
2023/07/18 09:56:26;;;;;;;;;;;42.50;43.30;;;;;;5113034;28;19904;-75
2023/07/18 09:58:52;;;;;;;;;;;42.60;43.30;;;;;;5094413;28;20351;-74
2023/07/18 10:01:21;;;;;;;;;;;42.70;43.40;;;;;;5113023;28;19910;-72
2023/07/18 10:03:54;;;;;;;;;;;42.50;42.90;;;;;;5112842;28;19916;-74
2023/07/18 10:06:20;;;;;;;;;;;42.30;43.00;;;;;;5113511;28;19962;-73
2023/07/18 10:08:46;;;;;;;;;;;42.20;44.10;;;;;;5113015;28;19914;-73
2023/07/18 10:11:12;;;;;;;;;;;42.40;43.40;;;;;;5115527;28;19907;-73
2023/07/18 10:14:02;;;;;;;;;;;42.70;43.10;;;;;;5116520;28;20412;-74
2023/07/18 10:16:28;;;;;;;;;;;42.80;44.00;;;;;;5116181;28;19990;-73
2023/07/18 10:18:54;;;;;;;;;;;42.30;43.30;;;;;;5116535;28;20105;-73
2023/07/18 10:21:32;;;;;;;;;;;42.50;44.20;;;;;;5116877;28;20359;-75
2023/07/18 10:24:21;;;;;;;;;;;42.70;44.10;;;;;;5098257;28;19904;-73
2023/07/18 10:26:50;;;;;;;;;;;43.00;44.10;;;;;;5103996;28;19904;-75
2023/07/18 10:29:16;;;;;;;;;;;43.00;51.10;;;;;;5116263;28;19930;-73
2023/07/18 10:31:42;;;;;;;;;;;43.00;46.70;;;;;;5116323;28;19987;-74
2023/07/18 10:34:09;;;;;;;;;;;42.60;45.20;;;;;;5116737;28;19903;-74
2023/07/18 10:36:36;;;;;;;;;;;42.40;56.20;;;;;;5116346;28;19904;-75
2023/07/18 10:39:09;;;;;;;;;;;42.10;56.90;;;;;;5116414;28;19912;-74
2023/07/18 10:41:35;;;;;;;;;;;42.00;57.40;;;;;;5116246;28;19908;-74
2023/07/18 10:44:01;;;;;;;;;;;42.10;56.90;;;;;;5116288;28;19915;-74
2023/07/18 10:46:36;;;;;;;;;;;42.10;57.30;;;;;;5116873;28;20353;-73
2023/07/18 10:49:03;;;;;;;;;;;42.40;56.50;;;;;;5116198;28;20344;-74
2023/07/18 10:51:29;;;;;;;;;;;42.10;55.90;;;;;;5116035;28;20267;-75
2023/07/18 10:53:55;;;;;;;;;;;41.80;55.60;;;;;;5116193;28;19911;-74
2023/07/18 10:56:22;;;;;;;;;;;42.20;55.70;;;;;;5116011;28;20328;-74
2023/07/18 10:58:51;;;;;;;;;;;42.30;53.50;;;;;;5115675;28;19947;-73
2023/07/18 11:01:17;;;;;;;;;;;42.50;51.80;;;;;;5115749;28;19910;-75
2023/07/18 11:03:45;;;;;;;;;;;42.50;53.40;;;;;;5115536;28;20284;-74
2023/07/18 11:06:13;;;;;;;;;;;42.80;53.50;;;;;;5116136;28;19903;-73
2023/07/18 11:08:39;;;;;;;;;;;42.90;53.70;;;;;;5115967;28;20291;-75
2023/07/18 11:11:05;;;;;;;;;;;42.90;54.20;;;;;;5116421;28;19911;-73
2023/07/18 11:13:33;;;;;;;;;;;42.80;53.80;;;;;;5115499;28;19904;-73
2023/07/18 11:16:01;;;;;;;;;;;42.80;53.50;;;;;;5115806;28;20036;-74
2023/07/18 11:18:31;;;;;;;;;;;42.80;52.60;;;;;;5115691;28;19904;-73
2023/07/18 11:20:56;;;;;;;;;;;42.60;52.00;;;;;;5115230;28;19994;-73
2023/07/18 11:23:23;;;;;;;;;;;42.80;51.90;;;;;;5114460;28;20002;-73
2023/07/18 11:25:50;;;;;;;;;;;42.70;51.70;;;;;;5116116;28;19904;-73
2023/07/18 11:28:16;;;;;;;;;;;42.80;50.90;;;;;;5096562;28;19911;-73
2023/07/18 11:30:43;;;;;;;;;;;43.00;50.30;;;;;;5096597;28;19915;-73
2023/07/18 11:33:13;;;;;;;;;;;43.10;50.50;;;;;;5115387;28;19904;-73
2023/07/18 11:35:43;;;;;;;;;;;42.80;50.20;;;;;;5115068;28;19911;-73
2023/07/18 11:38:08;;;;;;;;;;;42.80;49.70;;;;;;5115975;28;19910;-73
2023/07/18 11:40:36;;;;;;;;;;;42.70;49.50;;;;;;5115208;28;19912;-74
2023/07/18 11:43:02;;;;;;;;;;;42.90;49.10;;;;;;5115072;28;19949;-73
2023/07/18 11:45:29;;;;;;;;;;;42.70;48.80;;;;;;5114843;28;19907;-75
2023/07/18 11:47:57;;;;;;;;;;;42.50;48.90;;;;;;5114506;28;19908;-74
2023/07/18 11:50:26;;;;;;;;;;;42.40;49.20;;;;;;5114946;28;20359;-73
2023/07/18 11:52:53;;;;;;;;;;;42.40;49.10;;;;;;5114841;28;20347;-73
2023/07/18 11:55:19;;;;;;;;;;;42.30;49.50;;;;;;5114805;28;19990;-73
2023/07/18 11:57:45;;;;;;;;;;;42.20;48.50;;;;;;5114894;28;20346;-72
2023/07/18 12:00:12;;;;;;;;;;;42.10;48.40;;;;;;5114726;28;19954;-74
2023/07/18 12:02:37;;;;;;;;;;;42.10;48.70;;;;;;5096095;28;19908;-74
2023/07/18 12:05:04;;;;;;;;;;;41.90;49.00;;;;;;5115403;28;20066;-73
2023/07/18 12:07:30;;;;;;;;;;;41.70;49.00;;;;;;5114893;28;19908;-74
2023/07/18 12:09:55;;;;;;;;;;;41.90;49.30;;;;;;5115034;28;20236;-74
2023/07/18 12:12:23;;;;;;;;;;;41.70;49.40;;;;;;5114689;28;19943;-75
2023/07/18 12:14:50;;;;;;;;;;;41.60;49.20;;;;;;5114731;28;19903;-75
2023/07/18 12:17:16;;;;;;;;;;;41.70;49.40;;;;;;5114775;28;19908;-73
2023/07/18 12:19:42;;;;;;;;;;;41.50;48.90;;;;;;5114448;28;19964;-74
2023/07/18 12:22:08;;;;;;;;;;;41.20;49.60;;;;;;5096193;28;19904;-72
2023/07/18 12:24:34;;;;;;;;;;;41.00;49.30;;;;;;5114586;28;19910;-74
2023/07/18 12:27:00;;;;;;;;;;;41.00;49.90;;;;;;5114628;28;19903;-72
2023/07/18 12:29:25;;;;;;;;;;;41.00;49.80;;;;;;5114245;28;20385;-72
2023/07/18 12:31:53;;;;;;;;;;;41.00;49.90;;;;;;5114132;28;19991;-72
2023/07/18 12:34:19;;;;;;;;;;;40.80;50.10;;;;;;5114027;28;19939;-74
2023/07/18 12:36:45;;;;;;;;;;;41.10;50.50;;;;;;5114490;28;19935;-73
2023/07/18 12:39:11;;;;;;;;;;;41.30;51.80;;;;;;5095777;28;19969;-72
2023/07/18 12:41:37;;;;;;;;;;;41.20;52.20;;;;;;5095809;28;19934;-72
2023/07/18 12:44:03;;;;;;;;;;;41.40;52.80;;;;;;5113967;28;19973;-73
2023/07/18 12:46:29;;;;;;;;;;;41.20;53.40;;;;;;5114264;28;19989;-73
2023/07/18 12:48:54;;;;;;;;;;;40.30;53.80;;;;;;5095758;28;20010;-74
2023/07/18 12:51:21;;;;;;;;;;;40.50;55.90;;;;;;5114203;28;19904;-73
2023/07/18 12:53:47;;;;;;;;;;;40.60;56.20;;;;;;5113871;28;19912;-74
2023/07/18 12:56:14;;;;;;;;;;;40.70;55.90;;;;;;5114009;28;19976;-73
2023/07/18 12:58:41;;;;;;;;;;;40.70;56.90;;;;;;5095386;28;19923;-73
2023/07/18 13:01:07;;;;;;;;;;;40.70;57.40;;;;;;5113762;28;19914;-72
2023/07/18 13:03:33;;;;;;;;;;;40.60;60.80;;;;;;5113662;28;19921;-73
2023/07/18 13:05:59;;;;;;;;;;;40.60;62.10;;;;;;5113772;28;19904;-72
2023/07/18 13:08:25;;;;;;;;;;;40.80;62.70;;;;;;5095868;28;19910;-73
2023/07/18 13:10:51;;;;;;;;;;;41.00;64.00;;;;;;5114331;28;20271;-73
2023/07/18 13:13:17;;;;;;;;;;;41.20;65.10;;;;;;5113493;28;19949;-73
2023/07/18 13:15:47;;;;;;;;;;;40.80;66.10;;;;;;5113874;28;19910;-73
2023/07/18 13:18:13;;;;;;;;;;;40.90;67.10;;;;;;5113951;28;19904;-74
2023/07/18 13:20:39;;;;;;;;;;;41.10;67.80;;;;;;5113782;28;19973;-74
2023/07/18 13:23:05;;;;;;;;;;;41.20;67.60;;;;;;5113364;28;20360;-72
2023/07/18 13:25:31;;;;;;;;;;;41.60;67.50;;;;;;5113871;28;19903;-74
2023/07/18 13:27:57;;;;;;;;;;;41.30;65.80;;;;;;5113571;28;19904;-72
2023/07/18 13:30:23;;;;;;;;;;;41.50;66.40;;;;;;5113548;28;19957;-74
2023/07/18 13:32:49;;;;;;;;;;;41.40;67.20;;;;;;5113949;28;19956;-73
2023/07/18 13:35:15;;;;;;;;;;;41.50;67.60;;;;;;5113682;28;19990;-74
2023/07/18 13:37:41;;;;;;;;;;;41.20;67.70;;;;;;5113459;28;19904;-72
2023/07/18 13:40:07;;;;;;;;;;;41.30;68.40;;;;;;5113397;28;19912;-73
2023/07/18 13:42:33;;;;;;;;;;;41.10;70.20;;;;;;5113139;28;19965;-75
2023/07/18 13:44:59;;;;;;;;;;;41.20;70.50;;;;;;5113831;28;19904;-73
2023/07/18 13:47:25;;;;;;;;;;;41.30;69.50;;;;;;5117262;28;20018;-74
2023/07/18 13:49:51;;;;;;;;;;;41.30;70.20;;;;;;5117398;28;19965;-74
2023/07/18 13:52:20;;;;;;;;;;;41.50;70.80;;;;;;5098973;28;19924;-75
2023/07/18 13:54:47;;;;;;;;;;;41.70;70.30;;;;;;5117205;28;19914;-73
2023/07/18 13:57:13;;;;;;;;;;;41.40;70.30;;;;;;5117558;28;19933;-74
2023/07/18 13:59:39;;;;;;;;;;;41.40;71.20;;;;;;5117187;28;19918;-74
2023/07/18 14:02:06;;;;;;;;;;;41.30;71.40;;;;;;5098868;28;19904;-74
2023/07/18 14:04:32;;;;;;;;;;;41.50;71.40;;;;;;5116878;28;20256;-75
2023/07/18 14:06:58;;;;;;;;;;;41.50;72.30;;;;;;5117193;28;19904;-73
2023/07/18 14:09:24;;;;;;;;;;;41.40;73.40;;;;;;5116984;28;19903;-74
2023/07/18 14:11:50;;;;;;;;;;;41.40;71.90;;;;;;5117071;28;19965;-74